Time,TemperatureF,DewpointF,PressureIn,WindDirection,WindDirectionDegrees,WindSpeedMPH,WindSpeedGustMPH,Humidity,HourlyPrecipIn,Conditions,Clouds,dailyrainin,SoftwareType,DateUTC
2013-02-08 00:02:00,25.0,13.0,-100.00,SSE,160,1.0,3.0,60,-99.99,,,-99.99,,2013-02-08 05:02:00,
2013-02-08 00:12:00,25.0,13.0,-100.00,SSE,160,1.0,3.0,60,-99.99,,,-99.99,,2013-02-08 05:12:00,
2013-02-08 01:11:00,23.0,13.0,-100.00,WNW,285,0.0,1.0,67,-99.99,,,-99.99,,2013-02-08 06:11:00,
2013-02-08 01:22:00,22.0,14.0,-100.00,NE,50,0.0,1.0,69,-99.99,,,-99.99,,2013-02-08 06:22:00,
2013-02-08 01:32:00,22.0,14.0,-100.00,NNE,20,1.0,3.0,69,-99.99,,,-99.99,,2013-02-08 06:32:00,
2013-02-08 01:42:00,22.0,14.0,-100.00,NE,45,1.0,3.0,69,-99.99,,,-99.99,,2013-02-08 06:42:00,
2013-02-08 01:52:00,23.0,14.0,-100.00,SW,215,1.0,5.0,68,-99.99,,,-99.99,,2013-02-08 06:52:00,
2013-02-08 02:01:00,22.0,14.0,-100.00,WSW,240,0.0,2.0,70,-99.99,,,-99.99,,2013-02-08 07:01:00,
2013-02-08 02:12:00,23.0,15.0,-100.00,North,350,1.0,3.0,70,-99.99,,,-99.99,,2013-02-08 07:12:00,
2013-02-08 02:22:00,23.0,15.0,-100.00,NNE,15,1.0,3.0,71,-99.99,,,-99.99,,2013-02-08 07:22:00,
2013-02-08 02:32:00,23.0,15.0,-100.00,NNE,15,1.0,3.0,71,-99.99,,,-99.99,,2013-02-08 07:32:00,
2013-02-08 02:42:00,24.0,16.0,-100.00,NE,35,1.0,5.0,72,-99.99,,,-99.99,,2013-02-08 07:42:00,
2013-02-08 02:52:00,25.0,17.0,-100.00,ENE,75,0.0,5.0,72,-99.99,,,-99.99,,2013-02-08 07:52:00,
2013-02-08 04:03:00,26.0,19.0,-100.00,NE,40,2.0,5.0,75,-99.99,,,-99.99,,2013-02-08 09:03:00,
2013-02-08 04:11:00,26.0,20.0,-100.00,East,100,2.0,6.0,75,-99.99,,,-99.99,,2013-02-08 09:11:00,
2013-02-08 04:21:00,27.0,20.0,-100.00,ESE,105,2.0,9.0,75,-99.99,,,-99.99,,2013-02-08 09:21:00,
2013-02-08 04:30:00,28.0,22.0,-100.00,East,95,2.0,3.0,77,-99.99,,,-99.99,,2013-02-08 09:30:00,
2013-02-08 04:32:00,27.0,20.0,-100.00,East,85,2.0,6.0,76,-99.99,,,-99.99,,2013-02-08 09:32:00,
2013-02-08 04:42:00,27.0,21.0,-100.00,East,85,2.0,5.0,76,-99.99,,,-99.99,,2013-02-08 09:42:00,
2013-02-08 04:52:00,27.0,21.0,-100.00,SSE,155,2.0,6.0,76,-99.99,,,-99.99,,2013-02-08 09:52:00,
2013-02-08 05:01:00,27.0,21.0,-100.00,SSE,155,2.0,6.0,76,-99.99,,,-99.99,,2013-02-08 10:01:00,
2013-02-08 05:12:00,28.0,22.0,-100.00,East,95,2.0,3.0,77,-99.99,,,-99.99,,2013-02-08 10:12:00,
2013-02-08 05:22:00,28.0,22.0,-100.00,East,95,2.0,3.0,77,-99.99,,,-99.99,,2013-02-08 10:22:00,
2013-02-08 06:02:00,29.0,23.0,-100.00,SSE,165,2.0,7.0,77,-99.99,,,-99.99,,2013-02-08 11:02:00,
2013-02-08 06:11:00,29.0,23.0,-100.00,SE,135,2.0,8.0,77,-99.99,,,-99.99,,2013-02-08 11:11:00,
2013-02-08 06:22:00,30.0,23.0,-100.00,ESE,120,3.0,9.0,77,-99.99,,,-99.99,,2013-02-08 11:22:00,
2013-02-08 06:32:00,30.0,24.0,-100.00,ESE,120,2.0,12.0,77,-99.99,,,-99.99,,2013-02-08 11:32:00,
2013-02-08 06:42:00,30.0,24.0,-100.00,East,95,3.0,10.0,77,-99.99,,,-99.99,,2013-02-08 11:42:00,
2013-02-08 08:12:00,31.0,24.0,-100.00,East,85,5.0,13.0,76,-99.99,,,-99.99,,2013-02-08 13:12:00,
2013-02-08 08:22:00,31.0,24.0,-100.00,East,80,5.0,12.0,76,-99.99,,,-99.99,,2013-02-08 13:22:00,
2013-02-08 08:32:00,31.0,24.0,-100.00,SE,135,6.0,14.0,76,-99.99,,,-99.99,,2013-02-08 13:32:00,
2013-02-08 08:42:00,31.0,24.0,-100.00,East,80,6.0,12.0,75,-99.99,,,-99.99,,2013-02-08 13:42:00,
2013-02-08 08:52:00,31.0,24.0,-100.00,East,90,5.0,10.0,75,-99.99,,,-99.99,,2013-02-08 13:52:00,
2013-02-08 09:02:00,31.0,24.0,-100.00,East,80,2.0,10.0,75,-99.99,,,-99.99,,2013-02-08 14:02:00,
2013-02-08 09:11:00,31.0,24.0,-100.00,ENE,65,3.0,10.0,75,-99.99,,,-99.99,,2013-02-08 14:11:00,
2013-02-08 09:22:00,31.0,25.0,-100.00,East,85,5.0,13.0,76,-99.99,,,-99.99,,2013-02-08 14:22:00,
2013-02-08 09:32:00,31.0,25.0,-100.00,East,85,2.0,13.0,76,-99.99,,,-99.99,,2013-02-08 14:32:00,
2013-02-08 09:42:00,31.0,25.0,-100.00,NNE,25,3.0,13.0,77,-99.99,,,-99.99,,2013-02-08 14:42:00,
2013-02-08 09:52:00,32.0,25.0,-100.00,East,100,5.0,12.0,77,-99.99,,,-99.99,,2013-02-08 14:52:00,
2013-02-08 10:00:00,31.0,27.0,-100.00,East,85,5.0,12.0,85,-99.99,,,-99.99,,2013-02-08 15:00:00,
2013-02-08 10:02:00,32.0,26.0,-100.00,East,90,3.0,15.0,78,-99.99,,,-99.99,,2013-02-08 15:02:00,
2013-02-08 10:12:00,32.0,26.0,-100.00,ENE,65,3.0,18.0,79,-99.99,,,-99.99,,2013-02-08 15:12:00,
2013-02-08 10:22:00,32.0,26.0,-100.00,ESE,105,5.0,13.0,81,-99.99,,,-99.99,,2013-02-08 15:22:00,
2013-02-08 10:32:00,32.0,27.0,-100.00,ESE,110,3.0,13.0,82,-99.99,,,-99.99,,2013-02-08 15:32:00,
2013-02-08 10:42:00,31.0,27.0,-100.00,East,85,5.0,12.0,85,-99.99,,,-99.99,,2013-02-08 15:42:00,
2013-02-08 10:52:00,31.0,27.0,-100.00,East,85,5.0,12.0,85,-99.99,,,-99.99,,2013-02-08 15:52:00,
2013-02-08 13:03:00,33.0,30.0,-100.00,East,85,8.0,15.0,92,-99.99,,,-99.99,,2013-02-08 18:03:00,
2013-02-08 13:12:00,33.0,30.0,-100.00,ENE,65,8.0,14.0,92,-99.99,,,-99.99,,2013-02-08 18:12:00,
2013-02-08 13:25:00,33.0,31.0,-100.00,ENE,65,5.0,14.0,92,-99.99,,,-99.99,,2013-02-08 18:25:00,
2013-02-08 13:36:00,33.0,31.0,-100.00,NE,50,5.0,17.0,92,-99.99,,,-99.99,,2013-02-08 18:36:00,
2013-02-08 13:44:00,33.0,31.0,-100.00,ENE,75,7.0,16.0,92,-99.99,,,-99.99,,2013-02-08 18:44:00,
2013-02-08 13:52:00,33.0,31.0,-100.00,ENE,65,8.0,18.0,93,-99.99,,,-99.99,,2013-02-08 18:52:00,
2013-02-08 14:02:00,33.0,31.0,-100.00,ENE,70,7.0,15.0,93,-99.99,,,-99.99,,2013-02-08 19:02:00,
2013-02-08 14:12:00,33.0,31.0,-100.00,NE,55,7.0,21.0,93,-99.99,,,-99.99,,2013-02-08 19:12:00,
2013-02-08 14:22:00,32.0,31.0,-100.00,ENE,65,9.0,17.0,94,-99.99,,,-99.99,,2013-02-08 19:22:00,
2013-02-08 14:32:00,32.0,31.0,-100.00,ENE,65,7.0,20.0,94,-99.99,,,-99.99,,2013-02-08 19:32:00,
2013-02-08 15:32:00,32.0,31.0,-100.00,ENE,65,9.0,23.0,95,-99.99,,,-99.99,,2013-02-08 20:32:00,
2013-02-08 16:02:00,32.0,31.0,-100.00,ENE,70,9.0,28.0,95,-99.99,,,-99.99,,2013-02-08 21:02:00,
2013-02-08 16:12:00,33.0,31.0,-100.00,ENE,60,9.0,21.0,95,-99.99,,,-99.99,,2013-02-08 21:12:00,
2013-02-08 16:22:00,33.0,32.0,-100.00,ENE,65,9.0,24.0,96,-99.99,,,-99.99,,2013-02-08 21:22:00,
2013-02-08 16:30:00,32.0,31.0,-100.00,NE,50,12.0,24.0,96,-99.99,,,-99.99,,2013-02-08 21:30:00,
2013-02-08 16:33:00,33.0,31.0,-100.00,East,85,12.0,23.0,95,-99.99,,,-99.99,,2013-02-08 21:33:00,
2013-02-08 16:42:00,33.0,31.0,-100.00,ENE,60,10.0,25.0,95,-99.99,,,-99.99,,2013-02-08 21:42:00,
2013-02-08 16:52:00,33.0,32.0,-100.00,ENE,60,10.0,20.0,96,-99.99,,,-99.99,,2013-02-08 21:52:00,
2013-02-08 17:02:00,33.0,32.0,-100.00,ENE,60,10.0,20.0,96,-99.99,,,-99.99,,2013-02-08 22:02:00,
2013-02-08 17:12:00,32.0,31.0,-100.00,NE,50,12.0,24.0,96,-99.99,,,-99.99,,2013-02-08 22:12:00,
2013-02-08 17:22:00,32.0,31.0,-100.00,NE,50,12.0,24.0,96,-99.99,,,-99.99,,2013-02-08 22:22:00,
2013-02-08 17:42:00,32.0,31.0,-100.00,ENE,65,14.0,27.0,96,-99.99,,,-99.99,,2013-02-08 22:42:00,
2013-02-08 17:52:00,32.0,31.0,-100.00,ENE,65,14.0,27.0,96,-99.99,,,-99.99,,2013-02-08 22:52:00,
2013-02-08 18:02:00,32.0,31.0,-100.00,ENE,65,13.0,28.0,96,-99.99,,,-99.99,,2013-02-08 23:02:00,
2013-02-08 18:12:00,32.0,31.0,-100.00,ENE,70,8.0,28.0,96,-99.99,,,-99.99,,2013-02-08 23:12:00,
2013-02-08 18:22:00,32.0,31.0,-100.00,ENE,65,14.0,30.0,96,-99.99,,,-99.99,,2013-02-08 23:22:00,
2013-02-08 18:32:00,32.0,31.0,-100.00,ENE,65,16.0,28.0,96,-99.99,,,-99.99,,2013-02-08 23:32:00,
2013-02-08 18:42:00,32.0,31.0,-100.00,ENE,70,15.0,32.0,96,-99.99,,,-99.99,,2013-02-08 23:42:00,
2013-02-08 18:52:00,32.0,31.0,-100.00,ENE,65,15.0,29.0,97,-99.99,,,-99.99,,2013-02-08 23:52:00,
2013-02-08 19:02:00,31.0,31.0,-100.00,ENE,65,14.0,28.0,97,-99.99,,,-99.99,,2013-02-09 00:02:00,
2013-02-08 19:12:00,31.0,31.0,-100.00,ENE,65,22.0,35.0,97,-99.99,,,-99.99,,2013-02-09 00:12:00,
2013-02-08 19:22:00,31.0,31.0,-100.00,ENE,60,14.0,38.0,97,-99.99,,,-99.99,,2013-02-09 00:22:00,
2013-02-08 19:42:00,32.0,31.0,-100.00,ENE,65,15.0,35.0,98,-99.99,,,-99.99,,2013-02-09 00:42:00,
2013-02-08 19:52:00,32.0,31.0,-100.00,ENE,60,20.0,31.0,98,-99.99,,,-99.99,,2013-02-09 00:52:00,
2013-02-08 20:02:00,31.0,31.0,-100.00,ENE,70,18.0,32.0,99,-99.99,,,-99.99,,2013-02-09 01:02:00,
2013-02-08 20:12:00,32.0,31.0,-100.00,ENE,65,21.0,36.0,98,-99.99,,,-99.99,,2013-02-09 01:12:00,
2013-02-08 20:22:00,32.0,31.0,-100.00,ENE,60,20.0,38.0,98,-99.99,,,-99.99,,2013-02-09 01:22:00,
2013-02-08 20:32:00,32.0,31.0,-100.00,ENE,70,17.0,38.0,98,-99.99,,,-99.99,,2013-02-09 01:32:00,
2013-02-08 20:52:00,32.0,31.0,-100.00,ENE,65,21.0,43.0,98,-99.99,,,-99.99,,2013-02-09 01:52:00,
2013-02-08 21:02:00,32.0,31.0,-100.00,ENE,75,16.0,38.0,98,-99.99,,,-99.99,,2013-02-09 02:02:00,
2013-02-08 21:52:00,31.0,31.0,-100.00,ENE,60,23.0,45.0,99,-99.99,,,-99.99,,2013-02-09 02:52:00,
2013-02-08 22:02:00,31.0,31.0,-100.00,ENE,65,22.0,37.0,99,-99.99,,,-99.99,,2013-02-09 03:02:00,
2013-02-08 22:10:00,29.0,29.0,-100.00,ENE,65,17.0,48.0,99,-99.99,,,-99.99,,2013-02-09 03:10:00,
2013-02-08 22:11:00,30.0,30.0,-100.00,ENE,70,23.0,43.0,99,-99.99,,,-99.99,,2013-02-09 03:11:00,
2013-02-08 22:22:00,30.0,30.0,-100.00,ENE,60,22.0,43.0,99,-99.99,,,-99.99,,2013-02-09 03:22:00,
2013-02-08 22:32:00,30.0,29.0,-100.00,ENE,60,22.0,46.0,99,-99.99,,,-99.99,,2013-02-09 03:32:00,
2013-02-08 22:42:00,29.0,29.0,-100.00,NE,55,23.0,44.0,99,-99.99,,,-99.99,,2013-02-09 03:42:00,
2013-02-08 22:52:00,29.0,29.0,-100.00,ENE,65,17.0,48.0,99,-99.99,,,-99.99,,2013-02-09 03:52:00,
2013-02-08 23:03:00,29.0,29.0,-100.00,ENE,65,17.0,48.0,99,-99.99,,,-99.99,,2013-02-09 04:03:00,